createdAt,value
2018-07-20T00:00:08.120Z,11.90
2018-07-20T00:02:36.287Z,7.97
2018-07-20T00:05:05.136Z,7.73
2018-07-20T00:07:33.210Z,7.33
2018-07-20T00:10:01.381Z,8.13
2018-07-20T00:12:29.382Z,8.27
2018-07-20T00:14:57.621Z,8.97
2018-07-20T00:17:25.847Z,7.77
2018-07-20T00:19:53.946Z,7.60
2018-07-20T00:22:22.048Z,8.13
2018-07-20T00:24:50.181Z,9.60
2018-07-20T00:27:18.321Z,9.33
2018-07-20T00:29:46.340Z,8.20
2018-07-20T00:32:14.445Z,8.00
2018-07-20T00:34:42.496Z,8.37
2018-07-20T00:37:10.644Z,9.07
2018-07-20T00:39:38.763Z,8.10
2018-07-20T00:42:06.916Z,7.97
2018-07-20T00:44:34.968Z,7.67
2018-07-20T00:47:03.041Z,7.90
2018-07-20T00:49:31.203Z,8.97
2018-07-20T00:51:59.271Z,10.50
2018-07-20T00:54:27.440Z,11.23
2018-07-20T00:56:55.574Z,8.87
2018-07-20T00:59:23.673Z,8.77
2018-07-20T01:01:51.823Z,9.23
2018-07-20T01:04:19.878Z,10.67
2018-07-20T01:06:47.995Z,11.23
2018-07-20T01:09:16.097Z,10.80
2018-07-20T01:11:44.225Z,9.53
2018-07-20T01:14:12.209Z,9.63
2018-07-20T01:16:40.426Z,10.97
2018-07-20T01:19:08.448Z,11.70
2018-07-20T01:21:36.482Z,11.03
2018-07-20T01:24:05.634Z,14.13
2018-07-20T01:26:33.777Z,10.57
2018-07-20T01:29:01.904Z,10.53
2018-07-20T01:31:30.048Z,11.67
2018-07-20T01:33:58.092Z,12.40
2018-07-20T01:36:26.162Z,11.10
2018-07-20T01:38:54.338Z,10.73
2018-07-20T01:41:22.455Z,12.27
2018-07-20T01:43:50.596Z,11.33
2018-07-20T01:46:18.735Z,13.93
2018-07-20T01:48:46.753Z,12.70
2018-07-20T01:51:14.884Z,11.30
2018-07-20T01:53:43.012Z,10.80
2018-07-20T01:56:11.199Z,11.83
2018-07-20T01:58:39.240Z,11.70
2018-07-20T02:01:07.348Z,11.27
2018-07-20T02:03:35.534Z,11.93
2018-07-20T02:06:03.614Z,11.60
2018-07-20T02:08:31.624Z,11.63
2018-07-20T02:11:00.691Z,13.10
2018-07-20T02:13:28.816Z,13.60
2018-07-20T02:15:57.575Z,11.67
2018-07-20T02:18:25.694Z,13.17
2018-07-20T02:20:54.016Z,12.90
2018-07-20T02:23:23.257Z,13.30
2018-07-20T02:25:51.488Z,15.67
2018-07-20T02:28:19.601Z,11.43
2018-07-20T02:30:47.661Z,16.20
2018-07-20T02:33:15.818Z,12.20
2018-07-20T02:35:43.966Z,15.80
2018-07-20T02:38:12.098Z,15.53
2018-07-20T02:40:40.186Z,14.83
2018-07-20T02:43:08.196Z,14.83
2018-07-20T02:45:36.319Z,11.63
2018-07-20T02:48:04.614Z,13.10
2018-07-20T02:50:32.629Z,15.93
2018-07-20T02:53:00.727Z,11.90
2018-07-20T02:55:28.784Z,11.77
2018-07-20T02:57:56.958Z,12.37
2018-07-20T03:00:25.021Z,11.90
2018-07-20T03:02:53.017Z,14.13
2018-07-20T03:05:21.116Z,12.37
2018-07-20T03:07:49.204Z,13.83
2018-07-20T03:10:17.283Z,12.63
2018-07-20T03:12:45.260Z,11.90
2018-07-20T03:15:13.321Z,12.83
2018-07-20T03:17:41.379Z,13.20
2018-07-20T03:20:09.417Z,14.20
2018-07-20T03:22:37.665Z,12.57
2018-07-20T03:25:05.866Z,14.07
2018-07-20T03:27:33.927Z,12.10
2018-07-20T03:30:02.293Z,13.00
2018-07-20T03:32:30.368Z,15.60
2018-07-20T03:34:58.507Z,14.77
2018-07-20T03:37:26.583Z,14.73
2018-07-20T03:39:55.219Z,14.50
2018-07-20T03:42:23.335Z,13.47
2018-07-20T03:44:51.351Z,12.57
2018-07-20T03:47:19.503Z,11.70
2018-07-20T03:49:47.506Z,11.87
2018-07-20T03:52:15.778Z,12.77
2018-07-20T03:54:43.807Z,14.50
2018-07-20T03:57:12.168Z,13.23
2018-07-20T03:59:40.319Z,12.77
2018-07-20T04:02:08.504Z,11.77
2018-07-20T04:04:36.619Z,14.07
2018-07-20T04:07:04.893Z,13.77
2018-07-20T04:09:32.910Z,12.87
2018-07-20T04:12:01.205Z,11.87
2018-07-20T04:14:29.443Z,12.53
2018-07-20T04:16:57.566Z,12.57
2018-07-20T04:19:25.622Z,11.37
2018-07-20T04:21:53.788Z,12.90
2018-07-20T04:24:21.860Z,11.67
2018-07-20T04:26:49.942Z,13.03
2018-07-20T04:29:18.134Z,10.67
2018-07-20T04:31:46.544Z,11.33
2018-07-20T04:34:14.705Z,14.67
2018-07-20T04:36:42.989Z,12.63
2018-07-20T04:39:13.612Z,13.13
2018-07-20T04:41:42.540Z,13.67
2018-07-20T04:44:10.807Z,13.00
2018-07-20T04:46:39.098Z,12.47
2018-07-20T04:49:07.621Z,14.73
2018-07-20T04:51:35.812Z,13.57
2018-07-20T04:54:04.473Z,14.77
2018-07-20T04:56:32.634Z,11.57
2018-07-20T04:59:00.772Z,14.60
2018-07-20T05:01:28.867Z,13.33
2018-07-20T05:03:56.993Z,12.80
2018-07-20T05:06:25.189Z,13.10
2018-07-20T05:08:53.214Z,13.50
2018-07-20T05:11:21.319Z,14.30
2018-07-20T05:13:49.454Z,13.97
2018-07-20T05:16:17.933Z,13.87
2018-07-20T05:18:46.032Z,12.00
2018-07-20T05:21:14.222Z,11.17
2018-07-20T05:23:42.339Z,12.87
2018-07-20T05:26:10.389Z,11.43
2018-07-20T05:28:38.542Z,12.43
2018-07-20T05:31:06.777Z,14.07
2018-07-20T05:33:34.879Z,14.37
2018-07-20T05:36:03.252Z,14.43
2018-07-20T05:38:31.732Z,15.03
2018-07-20T05:41:00.541Z,14.33
2018-07-20T05:43:28.918Z,16.63
2018-07-20T05:45:57.208Z,13.47
2018-07-20T05:48:25.962Z,15.20
2018-07-20T05:50:54.483Z,13.10
2018-07-20T05:53:22.913Z,14.73
2018-07-20T05:55:51.311Z,12.37
2018-07-20T05:58:19.463Z,13.27
2018-07-20T06:00:47.670Z,11.97
2018-07-20T06:03:15.862Z,14.77
2018-07-20T06:05:44.006Z,15.17
2018-07-20T06:08:12.135Z,12.53
2018-07-20T06:10:40.552Z,14.80
2018-07-20T06:13:08.856Z,12.37
2018-07-20T06:15:37.120Z,14.47
2018-07-20T06:18:05.378Z,13.57
2018-07-20T06:20:33.761Z,14.03
2018-07-20T06:23:02.163Z,14.43
2018-07-20T06:25:30.746Z,19.40
2018-07-20T06:27:58.927Z,12.90
2018-07-20T06:30:27.109Z,15.17
2018-07-20T06:32:55.337Z,13.47
2018-07-20T06:35:23.536Z,13.70
2018-07-20T06:37:51.690Z,13.63
2018-07-20T06:40:19.725Z,13.03
2018-07-20T06:42:47.957Z,13.50
2018-07-20T06:45:16.141Z,12.80
2018-07-20T06:47:44.290Z,13.07
2018-07-20T06:50:15.709Z,12.77
2018-07-20T06:52:44.505Z,12.17
2018-07-20T06:55:12.808Z,17.70
2018-07-20T06:57:41.075Z,12.17
2018-07-20T07:00:09.536Z,13.20
2018-07-20T07:02:37.710Z,12.70
2018-07-20T07:05:07.640Z,15.00
2018-07-20T07:07:35.784Z,13.10
2018-07-20T07:10:04.177Z,15.90
2018-07-20T07:12:32.440Z,14.40
2018-07-20T07:15:01.027Z,12.87
2018-07-20T07:17:29.243Z,12.03
2018-07-20T07:19:57.386Z,12.83
2018-07-20T07:22:25.490Z,15.50
2018-07-20T07:24:53.575Z,12.40
2018-07-20T07:27:21.747Z,11.50
2018-07-20T07:29:50.426Z,12.30
2018-07-20T07:32:18.599Z,11.40
2018-07-20T07:34:47.015Z,13.73
2018-07-20T07:37:15.406Z,12.00
2018-07-20T07:39:43.636Z,12.07
2018-07-20T07:42:11.915Z,12.50
2018-07-20T07:44:40.241Z,12.63
2018-07-20T07:47:08.534Z,13.20
2018-07-20T07:49:37.156Z,11.67
2018-07-20T07:52:06.016Z,11.23
2018-07-20T07:54:34.399Z,12.17
2018-07-20T07:57:02.804Z,10.93
2018-07-20T07:59:31.192Z,11.40
2018-07-20T08:01:59.546Z,10.33
2018-07-20T08:04:27.891Z,10.83
2018-07-20T08:06:56.249Z,9.67
2018-07-20T08:09:25.222Z,9.70
2018-07-20T08:11:53.855Z,10.83
2018-07-20T08:14:22.309Z,10.63
2018-07-20T08:16:51.168Z,11.10
2018-07-20T08:19:19.589Z,10.70
2018-07-20T08:21:47.795Z,14.30
2018-07-20T08:24:15.925Z,11.00
2018-07-20T08:26:44.258Z,11.00
2018-07-20T08:29:12.716Z,10.47
2018-07-20T08:31:40.920Z,10.07
2018-07-20T08:34:09.267Z,11.40
2018-07-20T08:36:37.686Z,11.93
2018-07-20T08:39:08.449Z,11.10
2018-07-20T08:41:36.644Z,10.13
2018-07-20T08:44:05.073Z,11.10
2018-07-20T08:46:33.399Z,10.80
2018-07-20T08:49:01.556Z,11.47
2018-07-20T08:51:29.835Z,10.17
2018-07-20T08:53:58.130Z,10.57
2018-07-20T08:56:26.307Z,9.53
2018-07-20T08:58:54.387Z,10.20
2018-07-20T09:01:22.511Z,10.27
2018-07-20T09:03:50.636Z,10.00
2018-07-20T09:06:18.727Z,10.57
2018-07-20T09:08:46.872Z,9.80
2018-07-20T09:11:15.121Z,10.33
2018-07-20T09:13:43.417Z,10.37
2018-07-20T09:16:11.640Z,11.13
2018-07-20T09:18:39.935Z,10.23
2018-07-20T09:21:08.170Z,9.93
2018-07-20T09:23:36.687Z,9.97
2018-07-20T09:26:05.102Z,8.93
2018-07-20T09:28:33.769Z,10.47
2018-07-20T09:31:02.339Z,10.73
2018-07-20T09:33:31.671Z,10.37
2018-07-20T09:36:00.741Z,12.90
2018-07-20T09:38:29.216Z,9.68
2018-07-20T09:40:57.590Z,10.50
2018-07-20T09:43:25.796Z,10.35
2018-07-20T09:45:54.130Z,9.58
2018-07-20T09:48:22.860Z,8.95
2018-07-20T09:50:51.064Z,8.93
2018-07-20T09:53:19.653Z,9.60
2018-07-20T09:55:48.075Z,8.80
2018-07-20T09:58:16.572Z,9.28
2018-07-20T10:00:49.012Z,9.13
2018-07-20T10:03:17.983Z,9.03
2018-07-20T10:05:46.735Z,9.48
2018-07-20T10:08:15.311Z,8.80
2018-07-20T10:10:43.706Z,8.63
2018-07-20T10:13:11.953Z,9.97
2018-07-20T10:15:40.440Z,10.63
2018-07-20T10:18:08.531Z,9.68
2018-07-20T10:20:36.878Z,9.10
2018-07-20T10:23:05.025Z,9.58
2018-07-20T10:25:33.513Z,9.13
2018-07-20T10:28:01.682Z,8.83
2018-07-20T10:30:30.333Z,9.20
2018-07-20T10:32:58.658Z,8.30
2018-07-20T10:35:26.925Z,8.47
2018-07-20T10:37:55.254Z,8.47
2018-07-20T10:40:26.362Z,7.67
2018-07-20T10:42:56.185Z,8.27
2018-07-20T10:45:24.590Z,7.53
2018-07-20T10:47:52.859Z,7.80
2018-07-20T10:50:21.040Z,8.50
2018-07-20T10:52:50.224Z,8.60
2018-07-20T10:55:22.342Z,9.30
2018-07-20T10:57:51.671Z,9.67
2018-07-20T11:00:20.369Z,8.20
2018-07-20T11:02:48.538Z,8.50
2018-07-20T11:05:16.667Z,9.03
2018-07-20T11:07:45.042Z,9.10
2018-07-20T11:10:13.341Z,10.53
2018-07-20T11:12:41.607Z,8.93
2018-07-20T11:15:09.805Z,8.43
2018-07-20T11:17:38.119Z,8.40
2018-07-20T11:20:06.380Z,8.40
2018-07-20T11:22:34.600Z,8.48
2018-07-20T11:25:02.853Z,8.25
2018-07-20T11:27:31.225Z,8.80
2018-07-20T11:29:59.504Z,9.60
2018-07-20T11:32:27.887Z,9.18
2018-07-20T11:34:56.296Z,8.40
2018-07-20T11:37:24.499Z,7.90
2018-07-20T11:39:53.034Z,9.05
2018-07-20T11:42:21.367Z,8.53
2018-07-20T11:44:50.132Z,8.20
2018-07-20T11:47:18.739Z,7.90
2018-07-20T11:49:47.446Z,8.33
2018-07-20T11:52:15.650Z,8.90
2018-07-20T11:54:44.444Z,7.78
2018-07-20T11:57:12.770Z,7.22
2018-07-20T11:59:41.559Z,6.78
2018-07-20T12:02:10.093Z,6.75
2018-07-20T12:04:38.295Z,7.30
2018-07-20T12:07:06.540Z,7.67
2018-07-20T12:09:34.936Z,8.25
2018-07-20T12:12:03.125Z,7.87
2018-07-20T12:14:31.256Z,9.08
2018-07-20T12:16:59.560Z,7.12
2018-07-20T12:19:27.838Z,6.53
2018-07-20T12:21:56.076Z,7.30
2018-07-20T12:24:24.471Z,6.97
2018-07-20T12:26:53.293Z,6.27
2018-07-20T12:29:21.493Z,6.55
2018-07-20T12:31:49.870Z,5.93
2018-07-20T12:34:18.367Z,6.93
2018-07-20T12:36:46.652Z,7.00
2018-07-20T12:39:14.913Z,9.40
2018-07-20T12:41:43.085Z,6.73
2018-07-20T12:44:11.309Z,5.70
2018-07-20T12:46:39.867Z,7.92
2018-07-20T12:49:08.448Z,6.53
2018-07-20T12:51:36.930Z,6.05
2018-07-20T12:54:05.819Z,5.70
2018-07-20T12:56:34.204Z,5.73
2018-07-20T12:59:02.611Z,6.10
2018-07-20T13:01:31.144Z,5.80
2018-07-20T13:04:01.519Z,5.67
2018-07-20T13:06:33.545Z,7.27
2018-07-20T13:09:02.091Z,6.27
2018-07-20T13:11:30.277Z,6.10
2018-07-20T13:13:58.454Z,7.00
2018-07-20T13:16:26.758Z,6.83
2018-07-20T13:18:55.118Z,6.43
2018-07-20T13:21:23.702Z,6.40
2018-07-20T13:23:52.061Z,8.63
2018-07-20T13:26:20.310Z,7.07
2018-07-20T13:28:48.880Z,7.07
2018-07-20T13:31:17.332Z,7.10
2018-07-20T13:33:45.560Z,6.23
2018-07-20T13:36:14.072Z,6.33
2018-07-20T13:38:42.394Z,6.53
2018-07-20T13:41:10.920Z,5.70
2018-07-20T13:43:39.096Z,6.23
2018-07-20T13:46:07.425Z,6.00
2018-07-20T13:48:35.802Z,5.87
2018-07-20T13:51:04.699Z,5.50
2018-07-20T13:53:32.905Z,5.00
2018-07-20T13:56:01.214Z,5.83
2018-07-20T13:58:29.619Z,5.20
2018-07-20T14:00:58.141Z,5.62
2018-07-20T14:03:26.438Z,5.40
2018-07-20T14:05:54.752Z,6.23
2018-07-20T14:08:23.087Z,5.97
2018-07-20T14:10:51.428Z,5.27
2018-07-20T14:13:19.858Z,7.50
2018-07-20T14:15:48.266Z,6.63
2018-07-20T14:18:16.588Z,7.40
2018-07-20T14:20:44.833Z,7.67
2018-07-20T14:23:13.186Z,8.10
2018-07-20T14:25:41.786Z,7.40
2018-07-20T14:28:10.161Z,7.37
2018-07-20T14:30:38.519Z,7.80
2018-07-20T14:33:07.243Z,8.33
2018-07-20T14:35:35.664Z,8.80
2018-07-20T14:38:04.186Z,9.03
2018-07-20T14:40:32.891Z,8.60
2018-07-20T14:43:01.198Z,9.30
2018-07-20T14:45:29.477Z,9.63
2018-07-20T14:47:57.620Z,9.80
2018-07-20T14:50:25.813Z,9.40
2018-07-20T14:52:54.236Z,10.30
2018-07-20T14:55:22.490Z,9.57
2018-07-20T14:57:50.630Z,10.37
2018-07-20T15:00:18.706Z,11.03
2018-07-20T15:02:47.000Z,10.60
2018-07-20T15:05:15.335Z,10.77
2018-07-20T15:07:43.621Z,10.47
2018-07-20T15:10:12.087Z,12.70
2018-07-20T15:12:40.331Z,11.20
2018-07-20T15:15:09.320Z,10.87
2018-07-20T15:17:37.726Z,12.20
2018-07-20T15:20:06.578Z,11.73
2018-07-20T15:22:35.028Z,12.13
2018-07-20T15:25:03.306Z,10.10
2018-07-20T15:27:31.367Z,10.50
2018-07-20T15:29:59.434Z,10.77
2018-07-20T15:44:01.966Z,11.47
2018-07-20T15:46:30.183Z,12.10
2018-07-20T15:48:58.322Z,11.87
2018-07-20T15:51:55.484Z,12.10
2018-07-20T15:53:54.671Z,10.37
2018-07-20T15:56:22.689Z,9.50
2018-07-20T15:58:50.891Z,9.37
2018-07-20T16:01:19.016Z,9.63
2018-07-20T16:03:47.112Z,8.60
2018-07-20T16:06:15.380Z,10.47
2018-07-20T16:08:43.572Z,8.43
2018-07-20T16:11:11.751Z,8.23
2018-07-20T16:13:40.058Z,8.20
2018-07-20T16:16:08.348Z,8.37
2018-07-20T16:18:36.617Z,8.43
2018-07-20T16:21:04.880Z,8.33
2018-07-20T16:23:33.170Z,7.83
2018-07-20T16:26:01.573Z,8.57
2018-07-20T16:28:29.723Z,7.20
2018-07-20T16:30:58.052Z,8.97
2018-07-20T16:33:26.331Z,7.87
2018-07-20T16:35:54.718Z,7.70
2018-07-20T16:38:23.078Z,8.23
2018-07-20T16:40:51.378Z,8.20
2018-07-20T16:43:19.608Z,7.70
2018-07-20T16:45:47.807Z,8.87
2018-07-20T16:48:15.893Z,8.13
2018-07-20T16:50:44.174Z,8.20
2018-07-20T16:53:12.437Z,9.97
2018-07-20T16:55:40.606Z,8.37
2018-07-20T16:58:09.035Z,8.43
2018-07-20T17:00:37.400Z,8.00
2018-07-20T17:03:05.668Z,8.43
2018-07-20T17:05:34.056Z,10.03
2018-07-20T17:08:02.453Z,12.20
2018-07-20T17:10:30.870Z,13.07
2018-07-20T17:12:59.811Z,14.20
2018-07-20T17:15:28.297Z,12.43
2018-07-20T17:17:56.524Z,15.77
2018-07-20T17:20:24.786Z,14.00
2018-07-20T17:22:52.852Z,11.90
2018-07-20T17:25:21.144Z,15.40
2018-07-20T17:30:45.964Z,9.77
2018-07-20T17:33:14.440Z,10.87
2018-07-20T17:35:42.618Z,11.90
2018-07-20T17:38:10.987Z,10.10
2018-07-20T17:40:39.462Z,9.13
2018-07-20T17:49:06.658Z,7.90
2018-07-20T17:51:35.427Z,10.80
2018-07-20T17:54:04.316Z,9.33
2018-07-20T17:56:32.564Z,7.97
2018-07-20T17:59:01.708Z,8.23
2018-07-20T18:01:30.460Z,9.13
2018-07-20T18:03:59.152Z,8.10
2018-07-20T18:06:27.814Z,7.70
2018-07-20T18:08:56.163Z,7.87
2018-07-20T18:11:24.620Z,7.67
2018-07-20T18:13:52.955Z,7.87
2018-07-20T18:16:21.433Z,8.23
2018-07-20T18:18:49.658Z,8.73
2018-07-20T18:21:18.053Z,11.27
2018-07-20T18:23:46.311Z,8.73
2018-07-20T18:26:14.574Z,8.70
2018-07-20T18:28:42.786Z,7.70
2018-07-20T18:31:11.094Z,7.53
2018-07-20T18:33:39.708Z,7.80
2018-07-20T18:36:08.069Z,7.90
2018-07-20T18:38:36.440Z,8.57
2018-07-20T18:41:05.055Z,8.13
2018-07-20T18:43:33.571Z,11.67
2018-07-20T18:46:02.073Z,7.97
2018-07-20T18:48:30.351Z,7.83
2018-07-20T18:50:59.134Z,7.43
2018-07-20T18:53:27.529Z,7.57
2018-07-20T18:55:55.917Z,7.83
2018-07-20T18:58:24.369Z,7.13
2018-07-20T19:00:52.800Z,7.47
2018-07-20T19:03:21.159Z,7.43
2018-07-20T19:05:49.514Z,7.70
2018-07-20T19:08:17.907Z,8.80
2018-07-20T19:10:47.018Z,7.30
2018-07-20T19:13:15.343Z,7.67
2018-07-20T19:15:44.203Z,9.30
2018-07-20T19:18:12.880Z,9.50
2018-07-20T19:20:41.239Z,7.67
2018-07-20T19:23:09.627Z,8.70
2018-07-20T19:25:38.048Z,7.80
2018-07-20T19:28:06.541Z,8.83
2018-07-20T19:30:34.868Z,7.90
2018-07-20T19:33:03.138Z,9.23
2018-07-20T19:35:31.794Z,9.53
2018-07-20T19:38:00.243Z,8.10
2018-07-20T19:40:28.546Z,8.77
2018-07-20T19:42:56.750Z,8.17
2018-07-20T19:45:24.967Z,9.17
2018-07-20T19:47:53.707Z,11.27
2018-07-20T19:50:22.271Z,7.67
2018-07-20T19:52:50.539Z,8.57
2018-07-20T19:55:18.932Z,9.37
2018-07-20T19:57:47.151Z,9.63
2018-07-20T20:00:15.334Z,8.20
2018-07-20T20:02:43.521Z,7.73
2018-07-20T20:05:11.663Z,8.27
2018-07-20T20:07:40.120Z,8.83
2018-07-20T20:10:08.281Z,8.03
2018-07-20T20:12:36.684Z,9.33
2018-07-20T20:18:02.675Z,9.67
2018-07-20T20:20:30.941Z,8.03
2018-07-20T20:22:59.145Z,9.10
2018-07-20T20:25:27.386Z,8.50
2018-07-20T20:27:55.570Z,7.33
2018-07-20T20:30:23.792Z,8.50
2018-07-20T20:32:52.133Z,7.53
2018-07-20T20:35:20.332Z,8.30
2018-07-20T20:37:48.490Z,9.27
2018-07-20T20:40:16.860Z,10.90
2018-07-20T20:42:45.224Z,7.67
2018-07-20T20:45:13.354Z,8.47
2018-07-20T20:47:41.847Z,8.43
2018-07-20T20:50:10.109Z,8.73
2018-07-20T20:52:38.268Z,10.97
2018-07-20T20:55:06.446Z,8.07
2018-07-20T20:57:34.611Z,9.77
2018-07-20T21:00:02.955Z,8.17
2018-07-20T21:02:31.138Z,8.77
2018-07-20T21:04:59.217Z,9.10
2018-07-20T21:07:27.784Z,8.20
2018-07-20T21:09:56.147Z,9.40
2018-07-20T21:12:24.244Z,9.77
2018-07-20T21:14:52.380Z,9.97
2018-07-20T21:17:20.633Z,8.77
2018-07-20T21:19:48.881Z,8.93
2018-07-20T21:22:17.090Z,10.33
2018-07-20T21:24:45.265Z,10.77
2018-07-20T21:27:13.383Z,9.10
2018-07-20T21:29:41.463Z,9.13
2018-07-20T21:32:09.614Z,9.63
2018-07-20T21:34:37.705Z,10.07
2018-07-20T21:37:05.862Z,11.00
2018-07-20T21:39:34.044Z,8.80
2018-07-20T21:42:02.151Z,10.00
2018-07-20T21:44:30.178Z,8.30
2018-07-20T21:46:58.240Z,10.13
2018-07-20T21:49:26.265Z,8.53
2018-07-20T21:51:54.430Z,8.33
2018-07-20T21:54:22.582Z,9.07
2018-07-20T21:56:50.780Z,8.40
2018-07-20T21:59:18.829Z,10.33
2018-07-20T22:01:46.977Z,9.10
2018-07-20T22:04:14.989Z,12.33
2018-07-20T22:06:43.045Z,9.30
2018-07-20T22:09:11.972Z,8.60
2018-07-20T22:11:40.171Z,9.63
2018-07-20T22:14:08.255Z,9.33
2018-07-20T22:16:36.416Z,14.03
2018-07-20T22:19:04.622Z,9.10
2018-07-20T22:21:32.712Z,8.83
2018-07-20T22:24:00.875Z,9.00
2018-07-20T22:26:28.940Z,9.23
2018-07-20T22:28:57.063Z,8.73
2018-07-20T22:31:25.216Z,12.50
2018-07-20T22:33:53.375Z,9.87
2018-07-20T22:36:21.532Z,10.50
2018-07-20T22:38:49.648Z,9.90
2018-07-20T22:41:17.737Z,9.70
2018-07-20T22:43:45.829Z,9.97
2018-07-20T22:46:14.115Z,10.00
2018-07-20T22:48:42.175Z,9.97
2018-07-20T22:51:10.405Z,10.17
2018-07-20T22:53:38.565Z,12.97
2018-07-20T22:56:06.717Z,10.90
2018-07-20T22:58:34.715Z,9.80
2018-07-20T23:01:02.892Z,9.20
2018-07-20T23:03:30.916Z,10.37
2018-07-20T23:05:58.975Z,9.37
2018-07-20T23:08:27.097Z,9.73
2018-07-20T23:10:55.190Z,9.90
2018-07-20T23:13:23.254Z,9.67
2018-07-20T23:15:51.452Z,12.23
2018-07-20T23:18:19.629Z,11.77
2018-07-20T23:20:47.766Z,10.33
2018-07-20T23:23:15.804Z,13.33
2018-07-20T23:25:43.858Z,10.27
2018-07-20T23:28:11.887Z,10.60
2018-07-20T23:30:39.989Z,10.23
2018-07-20T23:33:08.067Z,10.03
2018-07-20T23:35:36.156Z,9.50
2018-07-20T23:38:04.394Z,10.07
2018-07-20T23:40:32.418Z,9.10
2018-07-20T23:43:00.527Z,9.77
2018-07-20T23:45:28.622Z,9.57
2018-07-20T23:47:56.869Z,9.53
2018-07-20T23:50:24.919Z,10.30
2018-07-20T23:52:52.975Z,10.03
2018-07-20T23:55:21.004Z,9.87
2018-07-20T23:57:49.040Z,9.37
